Derwood, Maryland
Current Conditions -  °F | °C
As of 5:15 AM on Saturday 22 Nov 2014 (Local Time) from KGAI Reporting Station
Clear Clear  
Wind Chill: 19°   Ceiling: Unl
Heat Index: 19°   Visibility: 10mi
Dew Point: 12°   Wind: 0mph
Humidity: 74%   Direction: NA
Pressure: 30.54"   Gusts: NA
Location:  39.12°N, 77.16°W
Report Text: KGAI 221015Z 00000KT 10SM CLR M07/M11 A3054 RMK AO1
Loading
Personal Weather Stations






























Interactive Weather Map New forecast layout! Learn more

10-Day Weather Forecast

Advertisements
Track Severe Weather on mobile